sensor_id;sensor_type;location;lat;lon;timestamp;temperature;humidity
439;DHT22;206;48.782;9.252;2023-03-14T00:02:08;12.10;77.50
439;DHT22;206;48.782;9.252;2023-03-14T00:04:34;12.10;78.20
439;DHT22;206;48.782;9.252;2023-03-14T00:07:00;12.10;78.30
439;DHT22;206;48.782;9.252;2023-03-14T00:09:26;12.20;78.60
439;DHT22;206;48.782;9.252;2023-03-14T00:11:53;12.20;77.20
439;DHT22;206;48.782;9.252;2023-03-14T00:14:18;12.20;77.00
439;DHT22;206;48.782;9.252;2023-03-14T00:16:47;12.20;76.90
439;DHT22;206;48.782;9.252;2023-03-14T00:19:13;12.20;77.10
439;DHT22;206;48.782;9.252;2023-03-14T00:21:39;12.10;77.00
439;DHT22;206;48.782;9.252;2023-03-14T00:24:04;12.10;77.70
439;DHT22;206;48.782;9.252;2023-03-14T00:26:31;12.10;78.20
439;DHT22;206;48.782;9.252;2023-03-14T00:28:56;12.10;78.00
439;DHT22;206;48.782;9.252;2023-03-14T00:31:22;12.20;76.40
439;DHT22;206;48.782;9.252;2023-03-14T00:33:48;12.10;77.00
439;DHT22;206;48.782;9.252;2023-03-14T00:36:16;12.10;77.70
439;DHT22;206;48.782;9.252;2023-03-14T00:38:43;12.10;77.20
439;DHT22;206;48.782;9.252;2023-03-14T00:41:14;12.20;77.50
439;DHT22;206;48.782;9.252;2023-03-14T00:43:41;12.20;77.20
439;DHT22;206;48.782;9.252;2023-03-14T00:46:07;12.20;76.30
439;DHT22;206;48.782;9.252;2023-03-14T00:48:33;12.20;76.10
439;DHT22;206;48.782;9.252;2023-03-14T00:50:58;12.20;75.30
439;DHT22;206;48.782;9.252;2023-03-14T00:53:24;12.30;75.00
439;DHT22;206;48.782;9.252;2023-03-14T00:55:50;12.40;74.00
439;DHT22;206;48.782;9.252;2023-03-14T00:58:17;12.30;74.10
439;DHT22;206;48.782;9.252;2023-03-14T01:00:44;12.30;73.80
439;DHT22;206;48.782;9.252;2023-03-14T01:03:10;12.30;74.60
439;DHT22;206;48.782;9.252;2023-03-14T01:05:37;12.30;73.50
439;DHT22;206;48.782;9.252;2023-03-14T01:08:02;12.40;73.50
439;DHT22;206;48.782;9.252;2023-03-14T01:10:28;12.30;72.60
439;DHT22;206;48.782;9.252;2023-03-14T01:12:54;12.40;72.10
439;DHT22;206;48.782;9.252;2023-03-14T01:15:20;12.30;70.80
439;DHT22;206;48.782;9.252;2023-03-14T01:17:46;12.30;70.80
439;DHT22;206;48.782;9.252;2023-03-14T01:20:13;12.30;70.70
439;DHT22;206;48.782;9.252;2023-03-14T01:22:40;12.30;69.10
439;DHT22;206;48.782;9.252;2023-03-14T01:25:12;12.40;66.70
439;DHT22;206;48.782;9.252;2023-03-14T01:27:38;12.40;66.30
439;DHT22;206;48.782;9.252;2023-03-14T01:30:04;12.40;66.40
439;DHT22;206;48.782;9.252;2023-03-14T01:32:30;12.40;65.20
439;DHT22;206;48.782;9.252;2023-03-14T01:34:56;12.50;65.70
439;DHT22;206;48.782;9.252;2023-03-14T01:37:22;12.50;66.20
439;DHT22;206;48.782;9.252;2023-03-14T01:39:48;12.50;64.80
439;DHT22;206;48.782;9.252;2023-03-14T01:42:14;12.50;64.40
439;DHT22;206;48.782;9.252;2023-03-14T01:47:12;12.50;64.70
439;DHT22;206;48.782;9.252;2023-03-14T01:49:38;12.50;64.20
439;DHT22;206;48.782;9.252;2023-03-14T01:52:12;12.50;63.80
439;DHT22;206;48.782;9.252;2023-03-14T01:54:43;12.50;64.40
439;DHT22;206;48.782;9.252;2023-03-14T01:59:36;12.40;63.50
439;DHT22;206;48.782;9.252;2023-03-14T02:02:04;12.40;64.50
439;DHT22;206;48.782;9.252;2023-03-14T02:04:33;12.40;64.40
439;DHT22;206;48.782;9.252;2023-03-14T02:07:03;12.30;63.70
439;DHT22;206;48.782;9.252;2023-03-14T02:09:31;12.30;63.80
439;DHT22;206;48.782;9.252;2023-03-14T02:11:57;12.30;63.30
439;DHT22;206;48.782;9.252;2023-03-14T02:14:32;12.30;62.30
439;DHT22;206;48.782;9.252;2023-03-14T02:17:00;12.30;61.50
439;DHT22;206;48.782;9.252;2023-03-14T02:22:16;12.30;62.70
439;DHT22;206;48.782;9.252;2023-03-14T02:27:40;12.30;62.30
439;DHT22;206;48.782;9.252;2023-03-14T02:30:24;12.30;62.50
439;DHT22;206;48.782;9.252;2023-03-14T02:32:55;12.30;62.20
439;DHT22;206;48.782;9.252;2023-03-14T02:35:26;12.20;62.40
439;DHT22;206;48.782;9.252;2023-03-14T02:38:02;12.20;62.40
439;DHT22;206;48.782;9.252;2023-03-14T02:40:29;12.10;62.10
439;DHT22;206;48.782;9.252;2023-03-14T02:42:54;12.10;63.70
439;DHT22;206;48.782;9.252;2023-03-14T02:47:50;12.00;64.20
439;DHT22;206;48.782;9.252;2023-03-14T02:50:22;12.00;64.40
439;DHT22;206;48.782;9.252;2023-03-14T02:52:48;12.00;63.90
439;DHT22;206;48.782;9.252;2023-03-14T02:55:14;12.00;63.40
439;DHT22;206;48.782;9.252;2023-03-14T02:57:40;12.00;64.00
439;DHT22;206;48.782;9.252;2023-03-14T03:00:06;12.00;64.80
439;DHT22;206;48.782;9.252;2023-03-14T03:02:33;12.00;64.80
439;DHT22;206;48.782;9.252;2023-03-14T03:04:59;11.90;64.70
439;DHT22;206;48.782;9.252;2023-03-14T03:07:24;12.00;64.30
439;DHT22;206;48.782;9.252;2023-03-14T03:09:50;11.90;64.00
439;DHT22;206;48.782;9.252;2023-03-14T03:12:16;11.90;62.70
439;DHT22;206;48.782;9.252;2023-03-14T03:14:41;11.90;64.00
439;DHT22;206;48.782;9.252;2023-03-14T03:17:07;11.90;63.30
439;DHT22;206;48.782;9.252;2023-03-14T03:19:33;11.90;62.50
439;DHT22;206;48.782;9.252;2023-03-14T03:22:01;11.90;62.60
439;DHT22;206;48.782;9.252;2023-03-14T03:24:27;11.90;63.50
439;DHT22;206;48.782;9.252;2023-03-14T03:26:53;11.90;62.60
439;DHT22;206;48.782;9.252;2023-03-14T03:29:19;11.80;62.70
439;DHT22;206;48.782;9.252;2023-03-14T03:31:44;11.80;62.30
439;DHT22;206;48.782;9.252;2023-03-14T03:34:13;11.80;62.70
439;DHT22;206;48.782;9.252;2023-03-14T03:36:41;11.80;61.40
439;DHT22;206;48.782;9.252;2023-03-14T03:39:07;11.80;61.00
439;DHT22;206;48.782;9.252;2023-03-14T03:41:33;11.80;60.90
439;DHT22;206;48.782;9.252;2023-03-14T03:43:59;11.80;59.60
439;DHT22;206;48.782;9.252;2023-03-14T03:46:25;11.80;59.00
439;DHT22;206;48.782;9.252;2023-03-14T03:48:58;11.70;56.40
439;DHT22;206;48.782;9.252;2023-03-14T03:51:25;11.80;58.10
439;DHT22;206;48.782;9.252;2023-03-14T03:53:50;11.70;56.80
439;DHT22;206;48.782;9.252;2023-03-14T03:56:16;11.80;57.00
439;DHT22;206;48.782;9.252;2023-03-14T03:58:42;11.80;55.00
439;DHT22;206;48.782;9.252;2023-03-14T04:01:09;11.70;54.90
439;DHT22;206;48.782;9.252;2023-03-14T04:03:37;11.70;54.90
439;DHT22;206;48.782;9.252;2023-03-14T04:06:11;11.70;54.30
439;DHT22;206;48.782;9.252;2023-03-14T04:08:38;11.70;54.50
439;DHT22;206;48.782;9.252;2023-03-14T04:11:06;11.70;54.10
439;DHT22;206;48.782;9.252;2023-03-14T04:13:34;11.70;52.40
439;DHT22;206;48.782;9.252;2023-03-14T04:16:02;11.70;52.70
439;DHT22;206;48.782;9.252;2023-03-14T04:18:28;11.70;52.40
439;DHT22;206;48.782;9.252;2023-03-14T04:20:56;11.60;53.10
439;DHT22;206;48.782;9.252;2023-03-14T04:23:23;11.60;52.00
439;DHT22;206;48.782;9.252;2023-03-14T04:25:50;11.60;51.40
439;DHT22;206;48.782;9.252;2023-03-14T04:28:17;11.60;51.70
439;DHT22;206;48.782;9.252;2023-03-14T04:30:45;11.60;50.60
439;DHT22;206;48.782;9.252;2023-03-14T04:33:10;11.60;51.20
439;DHT22;206;48.782;9.252;2023-03-14T04:35:43;11.60;51.40
439;DHT22;206;48.782;9.252;2023-03-14T04:38:09;11.60;52.00
439;DHT22;206;48.782;9.252;2023-03-14T04:40:37;11.60;51.70
439;DHT22;206;48.782;9.252;2023-03-14T04:43:03;11.60;51.70
439;DHT22;206;48.782;9.252;2023-03-14T04:45:29;11.50;50.40
439;DHT22;206;48.782;9.252;2023-03-14T04:47:54;11.40;51.30
439;DHT22;206;48.782;9.252;2023-03-14T04:50:20;11.40;51.90
439;DHT22;206;48.782;9.252;2023-03-14T04:52:45;11.40;51.70
439;DHT22;206;48.782;9.252;2023-03-14T04:55:11;11.40;51.60
439;DHT22;206;48.782;9.252;2023-03-14T04:57:37;11.40;51.00
439;DHT22;206;48.782;9.252;2023-03-14T05:00:04;11.40;51.60
439;DHT22;206;48.782;9.252;2023-03-14T05:02:33;11.40;50.70
439;DHT22;206;48.782;9.252;2023-03-14T05:04:59;11.40;51.30
439;DHT22;206;48.782;9.252;2023-03-14T05:07:24;11.40;52.00
439;DHT22;206;48.782;9.252;2023-03-14T05:09:50;11.40;51.90
439;DHT22;206;48.782;9.252;2023-03-14T05:12:16;11.40;52.00
439;DHT22;206;48.782;9.252;2023-03-14T05:14:42;11.40;51.90
439;DHT22;206;48.782;9.252;2023-03-14T05:17:07;11.30;52.90
439;DHT22;206;48.782;9.252;2023-03-14T05:19:33;11.30;53.50
439;DHT22;206;48.782;9.252;2023-03-14T05:21:58;11.30;53.10
439;DHT22;206;48.782;9.252;2023-03-14T05:24:24;11.20;52.70
439;DHT22;206;48.782;9.252;2023-03-14T05:26:49;11.20;53.00
439;DHT22;206;48.782;9.252;2023-03-14T05:29:15;11.20;53.10
439;DHT22;206;48.782;9.252;2023-03-14T05:31:41;11.30;53.60
439;DHT22;206;48.782;9.252;2023-03-14T05:34:06;11.30;51.50
439;DHT22;206;48.782;9.252;2023-03-14T05:36:32;11.30;51.00
439;DHT22;206;48.782;9.252;2023-03-14T05:38:57;11.20;51.00
439;DHT22;206;48.782;9.252;2023-03-14T05:41:23;11.20;51.90
439;DHT22;206;48.782;9.252;2023-03-14T05:43:49;11.20;50.00
439;DHT22;206;48.782;9.252;2023-03-14T05:46:14;11.20;50.90
439;DHT22;206;48.782;9.252;2023-03-14T05:48:40;11.30;50.40
439;DHT22;206;48.782;9.252;2023-03-14T05:51:05;11.30;50.80
439;DHT22;206;48.782;9.252;2023-03-14T05:53:31;11.30;49.60
439;DHT22;206;48.782;9.252;2023-03-14T05:55:57;11.30;49.70
439;DHT22;206;48.782;9.252;2023-03-14T05:58:23;11.30;49.70
439;DHT22;206;48.782;9.252;2023-03-14T06:00:49;11.30;50.20
439;DHT22;206;48.782;9.252;2023-03-14T06:03:14;11.40;49.80
439;DHT22;206;48.782;9.252;2023-03-14T06:05:40;11.40;49.70
439;DHT22;206;48.782;9.252;2023-03-14T06:08:06;11.40;49.00
439;DHT22;206;48.782;9.252;2023-03-14T06:10:31;11.50;48.60
439;DHT22;206;48.782;9.252;2023-03-14T06:12:57;11.50;48.70
439;DHT22;206;48.782;9.252;2023-03-14T06:15:22;11.60;48.60
439;DHT22;206;48.782;9.252;2023-03-14T06:17:48;11.60;48.20
439;DHT22;206;48.782;9.252;2023-03-14T06:20:13;11.60;48.40
439;DHT22;206;48.782;9.252;2023-03-14T06:22:39;11.70;47.90
439;DHT22;206;48.782;9.252;2023-03-14T06:25:06;11.70;47.80
439;DHT22;206;48.782;9.252;2023-03-14T06:27:32;11.70;47.30
439;DHT22;206;48.782;9.252;2023-03-14T06:29:58;11.70;46.80
439;DHT22;206;48.782;9.252;2023-03-14T06:32:24;11.60;46.10
439;DHT22;206;48.782;9.252;2023-03-14T06:34:50;11.70;46.90
439;DHT22;206;48.782;9.252;2023-03-14T06:37:16;11.60;47.40
439;DHT22;206;48.782;9.252;2023-03-14T06:39:41;11.60;48.60
439;DHT22;206;48.782;9.252;2023-03-14T06:42:09;11.70;46.90
439;DHT22;206;48.782;9.252;2023-03-14T06:44:34;11.70;46.90
439;DHT22;206;48.782;9.252;2023-03-14T06:47:00;11.80;47.10
439;DHT22;206;48.782;9.252;2023-03-14T06:49:26;11.80;46.30
439;DHT22;206;48.782;9.252;2023-03-14T06:51:51;11.80;45.50
439;DHT22;206;48.782;9.252;2023-03-14T06:54:17;11.90;45.80
439;DHT22;206;48.782;9.252;2023-03-14T06:56:43;12.00;45.50
439;DHT22;206;48.782;9.252;2023-03-14T06:59:08;12.10;44.80
439;DHT22;206;48.782;9.252;2023-03-14T07:01:34;12.40;43.80
439;DHT22;206;48.782;9.252;2023-03-14T07:04:00;12.50;42.70
439;DHT22;206;48.782;9.252;2023-03-14T07:06:26;12.70;41.20
439;DHT22;206;48.782;9.252;2023-03-14T07:08:54;12.80;40.60
439;DHT22;206;48.782;9.252;2023-03-14T07:11:20;12.80;40.40
439;DHT22;206;48.782;9.252;2023-03-14T07:13:46;12.80;39.30
439;DHT22;206;48.782;9.252;2023-03-14T07:16:11;12.80;39.40
439;DHT22;206;48.782;9.252;2023-03-14T07:18:37;13.00;39.10
439;DHT22;206;48.782;9.252;2023-03-14T07:21:03;13.10;38.90
439;DHT22;206;48.782;9.252;2023-03-14T07:23:29;13.50;38.00
439;DHT22;206;48.782;9.252;2023-03-14T07:25:56;13.80;35.50
439;DHT22;206;48.782;9.252;2023-03-14T07:28:21;14.00;33.80
439;DHT22;206;48.782;9.252;2023-03-14T07:30:48;14.30;32.70
439;DHT22;206;48.782;9.252;2023-03-14T07:33:14;14.60;31.60
439;DHT22;206;48.782;9.252;2023-03-14T07:35:40;14.90;30.70
439;DHT22;206;48.782;9.252;2023-03-14T07:38:05;15.10;29.90
439;DHT22;206;48.782;9.252;2023-03-14T07:40:31;15.40;29.30
439;DHT22;206;48.782;9.252;2023-03-14T07:42:56;15.60;29.00
439;DHT22;206;48.782;9.252;2023-03-14T07:45:22;15.70;29.00
439;DHT22;206;48.782;9.252;2023-03-14T07:47:48;15.70;28.60
439;DHT22;206;48.782;9.252;2023-03-14T07:50:14;15.50;28.60
439;DHT22;206;48.782;9.252;2023-03-14T07:52:39;15.40;28.50
439;DHT22;206;48.782;9.252;2023-03-14T07:55:05;15.50;28.40
439;DHT22;206;48.782;9.252;2023-03-14T07:57:31;15.50;28.90
439;DHT22;206;48.782;9.252;2023-03-14T07:59:57;15.50;28.00
439;DHT22;206;48.782;9.252;2023-03-14T08:02:22;15.50;28.40
439;DHT22;206;48.782;9.252;2023-03-14T08:04:49;15.60;27.10
439;DHT22;206;48.782;9.252;2023-03-14T08:07:15;15.60;27.10
439;DHT22;206;48.782;9.252;2023-03-14T08:09:41;15.60;27.30
439;DHT22;206;48.782;9.252;2023-03-14T08:12:07;15.60;26.70
439;DHT22;206;48.782;9.252;2023-03-14T08:14:33;15.70;27.30
439;DHT22;206;48.782;9.252;2023-03-14T08:16:58;15.70;26.60
439;DHT22;206;48.782;9.252;2023-03-14T08:19:24;15.70;26.00
439;DHT22;206;48.782;9.252;2023-03-14T08:21:50;15.70;26.20
439;DHT22;206;48.782;9.252;2023-03-14T08:24:16;15.70;26.20
439;DHT22;206;48.782;9.252;2023-03-14T08:26:41;15.50;26.00
439;DHT22;206;48.782;9.252;2023-03-14T08:29:07;15.20;26.60
439;DHT22;206;48.782;9.252;2023-03-14T08:31:34;15.10;27.10
439;DHT22;206;48.782;9.252;2023-03-14T08:34:00;15.20;27.00
439;DHT22;206;48.782;9.252;2023-03-14T08:36:27;15.20;27.20
439;DHT22;206;48.782;9.252;2023-03-14T08:38:53;15.40;27.00
439;DHT22;206;48.782;9.252;2023-03-14T08:41:18;15.50;26.60
439;DHT22;206;48.782;9.252;2023-03-14T08:43:44;15.80;25.10
439;DHT22;206;48.782;9.252;2023-03-14T08:46:09;16.00;25.20
439;DHT22;206;48.782;9.252;2023-03-14T08:48:35;16.20;24.30
439;DHT22;206;48.782;9.252;2023-03-14T08:51:08;16.20;23.00
439;DHT22;206;48.782;9.252;2023-03-14T08:53:34;15.90;23.70
439;DHT22;206;48.782;9.252;2023-03-14T08:56:00;15.80;24.10
439;DHT22;206;48.782;9.252;2023-03-14T08:58:25;15.80;23.70
439;DHT22;206;48.782;9.252;2023-03-14T09:00:51;15.70;23.90
439;DHT22;206;48.782;9.252;2023-03-14T09:03:17;15.60;23.80
439;DHT22;206;48.782;9.252;2023-03-14T09:05:42;15.60;24.30
439;DHT22;206;48.782;9.252;2023-03-14T09:08:08;15.80;24.20
439;DHT22;206;48.782;9.252;2023-03-14T09:10:33;16.10;23.80
439;DHT22;206;48.782;9.252;2023-03-14T09:12:59;16.00;23.30
439;DHT22;206;48.782;9.252;2023-03-14T09:15:25;15.90;24.10
439;DHT22;206;48.782;9.252;2023-03-14T09:17:51;15.80;24.20
439;DHT22;206;48.782;9.252;2023-03-14T09:20:16;15.60;25.10
439;DHT22;206;48.782;9.252;2023-03-14T09:22:42;15.60;25.80
439;DHT22;206;48.782;9.252;2023-03-14T09:25:08;15.90;25.50
439;DHT22;206;48.782;9.252;2023-03-14T09:27:33;16.00;25.40
439;DHT22;206;48.782;9.252;2023-03-14T09:29:59;16.20;25.90
439;DHT22;206;48.782;9.252;2023-03-14T09:32:25;16.30;25.20
439;DHT22;206;48.782;9.252;2023-03-14T09:34:50;16.30;25.40
439;DHT22;206;48.782;9.252;2023-03-14T09:37:16;16.50;25.00
439;DHT22;206;48.782;9.252;2023-03-14T09:39:42;16.80;24.80
439;DHT22;206;48.782;9.252;2023-03-14T09:42:14;16.90;24.20
439;DHT22;206;48.782;9.252;2023-03-14T09:47:18;16.70;25.10
439;DHT22;206;48.782;9.252;2023-03-14T09:49:45;16.90;24.40
439;DHT22;206;48.782;9.252;2023-03-14T09:52:25;17.00;23.40
439;DHT22;206;48.782;9.252;2023-03-14T09:54:57;17.10;23.10
439;DHT22;206;48.782;9.252;2023-03-14T09:57:25;16.80;22.30
439;DHT22;206;48.782;9.252;2023-03-14T09:59:55;16.80;23.00
439;DHT22;206;48.782;9.252;2023-03-14T10:02:24;16.80;23.00
439;DHT22;206;48.782;9.252;2023-03-14T10:04:52;16.60;22.90
439;DHT22;206;48.782;9.252;2023-03-14T10:07:29;16.50;23.30
439;DHT22;206;48.782;9.252;2023-03-14T10:09:56;16.50;23.20
439;DHT22;206;48.782;9.252;2023-03-14T10:12:34;16.50;23.00
439;DHT22;206;48.782;9.252;2023-03-14T10:15:10;16.50;23.10
439;DHT22;206;48.782;9.252;2023-03-14T10:17:46;16.50;23.10
439;DHT22;206;48.782;9.252;2023-03-14T10:25:39;16.10;23.60
439;DHT22;206;48.782;9.252;2023-03-14T10:28:05;16.00;24.10
439;DHT22;206;48.782;9.252;2023-03-14T10:30:44;16.00;24.60
439;DHT22;206;48.782;9.252;2023-03-14T10:35:36;16.00;24.10
439;DHT22;206;48.782;9.252;2023-03-14T10:38:04;16.10;23.70
439;DHT22;206;48.782;9.252;2023-03-14T10:40:37;16.30;23.40
439;DHT22;206;48.782;9.252;2023-03-14T10:43:05;16.40;23.50
439;DHT22;206;48.782;9.252;2023-03-14T10:45:41;16.70;23.30
439;DHT22;206;48.782;9.252;2023-03-14T10:50:48;16.90;21.70
439;DHT22;206;48.782;9.252;2023-03-14T10:53:17;17.10;21.90
439;DHT22;206;48.782;9.252;2023-03-14T10:55:44;17.10;21.90
439;DHT22;206;48.782;9.252;2023-03-14T10:58:29;16.80;21.70
439;DHT22;206;48.782;9.252;2023-03-14T11:03:43;16.70;21.90
439;DHT22;206;48.782;9.252;2023-03-14T11:06:14;16.60;22.90
439;DHT22;206;48.782;9.252;2023-03-14T11:11:32;16.20;22.80
439;DHT22;206;48.782;9.252;2023-03-14T11:14:18;16.10;23.80
439;DHT22;206;48.782;9.252;2023-03-14T11:19:43;15.70;26.80
439;DHT22;206;48.782;9.252;2023-03-14T11:30:22;15.50;28.90
439;DHT22;206;48.782;9.252;2023-03-14T11:35:30;15.10;31.10
439;DHT22;206;48.782;9.252;2023-03-14T11:40:37;14.70;32.90
439;DHT22;206;48.782;9.252;2023-03-14T11:45:38;14.70;33.10
439;DHT22;206;48.782;9.252;2023-03-14T11:48:17;14.60;33.20
439;DHT22;206;48.782;9.252;2023-03-14T11:50:46;14.60;34.50
439;DHT22;206;48.782;9.252;2023-03-14T11:56:24;14.80;33.00
439;DHT22;206;48.782;9.252;2023-03-14T11:58:57;14.80;33.90
439;DHT22;206;48.782;9.252;2023-03-14T12:01:29;14.80;33.70
439;DHT22;206;48.782;9.252;2023-03-14T12:04:04;14.70;35.00
439;DHT22;206;48.782;9.252;2023-03-14T12:06:54;14.70;34.00
439;DHT22;206;48.782;9.252;2023-03-14T12:09:23;14.60;35.00
439;DHT22;206;48.782;9.252;2023-03-14T12:11:54;14.50;35.80
439;DHT22;206;48.782;9.252;2023-03-14T12:14:29;14.50;34.20
439;DHT22;206;48.782;9.252;2023-03-14T12:17:07;14.60;34.80
439;DHT22;206;48.782;9.252;2023-03-14T12:19:44;14.70;33.10
439;DHT22;206;48.782;9.252;2023-03-14T12:22:23;14.80;33.00
439;DHT22;206;48.782;9.252;2023-03-14T12:24:54;14.50;33.10
439;DHT22;206;48.782;9.252;2023-03-14T12:27:41;14.40;35.30
439;DHT22;206;48.782;9.252;2023-03-14T12:30:30;14.40;34.70
439;DHT22;206;48.782;9.252;2023-03-14T12:35:48;14.50;33.70
439;DHT22;206;48.782;9.252;2023-03-14T12:41:29;14.50;29.10
439;DHT22;206;48.782;9.252;2023-03-14T12:46:57;14.70;26.50
439;DHT22;206;48.782;9.252;2023-03-14T12:49:29;14.50;24.50
439;DHT22;206;48.782;9.252;2023-03-14T12:52:00;14.50;22.90
439;DHT22;206;48.782;9.252;2023-03-14T12:57:39;14.40;21.40
439;DHT22;206;48.782;9.252;2023-03-14T13:00:19;14.30;20.90
439;DHT22;206;48.782;9.252;2023-03-14T13:02:46;14.30;21.10
439;DHT22;206;48.782;9.252;2023-03-14T13:05:20;14.20;19.90
439;DHT22;206;48.782;9.252;2023-03-14T13:10:24;13.80;19.40
439;DHT22;206;48.782;9.252;2023-03-14T13:15:59;13.70;19.50
439;DHT22;206;48.782;9.252;2023-03-14T13:18:40;13.50;18.90
439;DHT22;206;48.782;9.252;2023-03-14T13:21:24;13.30;19.50
439;DHT22;206;48.782;9.252;2023-03-14T13:24:00;13.20;19.80
439;DHT22;206;48.782;9.252;2023-03-14T13:26:34;13.30;18.90
439;DHT22;206;48.782;9.252;2023-03-14T13:28:59;13.30;18.10
439;DHT22;206;48.782;9.252;2023-03-14T13:31:26;13.40;18.30
439;DHT22;206;48.782;9.252;2023-03-14T13:34:02;13.50;17.50
439;DHT22;206;48.782;9.252;2023-03-14T13:36:28;13.50;17.80
439;DHT22;206;48.782;9.252;2023-03-14T13:38:58;13.60;16.40
439;DHT22;206;48.782;9.252;2023-03-14T13:41:25;13.50;17.40
439;DHT22;206;48.782;9.252;2023-03-14T13:43:51;13.50;16.90
439;DHT22;206;48.782;9.252;2023-03-14T13:46:21;13.50;17.00
439;DHT22;206;48.782;9.252;2023-03-14T13:49:01;13.30;16.10
439;DHT22;206;48.782;9.252;2023-03-14T13:51:28;13.30;16.00
439;DHT22;206;48.782;9.252;2023-03-14T13:53:57;13.10;16.10
439;DHT22;206;48.782;9.252;2023-03-14T13:56:30;13.00;15.70
439;DHT22;206;48.782;9.252;2023-03-14T13:58:56;12.80;16.30
439;DHT22;206;48.782;9.252;2023-03-14T14:03:54;13.00;15.60
439;DHT22;206;48.782;9.252;2023-03-14T14:06:30;12.80;14.60
439;DHT22;206;48.782;9.252;2023-03-14T14:08:59;12.70;14.10
439;DHT22;206;48.782;9.252;2023-03-14T14:11:42;12.50;14.50
439;DHT22;206;48.782;9.252;2023-03-14T14:14:13;12.40;14.50
439;DHT22;206;48.782;9.252;2023-03-14T14:16:42;12.30;14.20
439;DHT22;206;48.782;9.252;2023-03-14T14:19:08;12.30;14.50
439;DHT22;206;48.782;9.252;2023-03-14T14:21:34;12.30;14.70
439;DHT22;206;48.782;9.252;2023-03-14T14:24:00;12.40;13.20
439;DHT22;206;48.782;9.252;2023-03-14T14:26:26;12.40;13.60
439;DHT22;206;48.782;9.252;2023-03-14T14:29:00;12.40;12.60
439;DHT22;206;48.782;9.252;2023-03-14T14:31:26;12.40;12.70
439;DHT22;206;48.782;9.252;2023-03-14T14:34:02;12.40;12.80
439;DHT22;206;48.782;9.252;2023-03-14T14:36:46;12.30;12.60
439;DHT22;206;48.782;9.252;2023-03-14T14:39:24;12.40;12.50
439;DHT22;206;48.782;9.252;2023-03-14T14:41:52;12.30;12.60
439;DHT22;206;48.782;9.252;2023-03-14T14:44:26;12.30;12.80
439;DHT22;206;48.782;9.252;2023-03-14T14:46:55;12.40;13.00
439;DHT22;206;48.782;9.252;2023-03-14T14:49:20;12.50;13.00
439;DHT22;206;48.782;9.252;2023-03-14T14:51:50;12.40;12.80
439;DHT22;206;48.782;9.252;2023-03-14T14:54:19;12.50;12.90
439;DHT22;206;48.782;9.252;2023-03-14T14:56:50;12.40;12.40
439;DHT22;206;48.782;9.252;2023-03-14T14:59:26;12.20;12.90
439;DHT22;206;48.782;9.252;2023-03-14T15:02:00;12.10;13.00
439;DHT22;206;48.782;9.252;2023-03-14T15:04:26;12.10;13.20
439;DHT22;206;48.782;9.252;2023-03-14T15:06:52;12.10;13.40
439;DHT22;206;48.782;9.252;2023-03-14T15:09:19;12.10;13.40
439;DHT22;206;48.782;9.252;2023-03-14T15:11:46;12.10;13.40
439;DHT22;206;48.782;9.252;2023-03-14T15:14:11;12.10;14.00
439;DHT22;206;48.782;9.252;2023-03-14T15:16:38;12.00;14.10
439;DHT22;206;48.782;9.252;2023-03-14T15:19:19;12.00;13.20
439;DHT22;206;48.782;9.252;2023-03-14T15:21:45;12.10;13.60
439;DHT22;206;48.782;9.252;2023-03-14T15:24:10;12.20;13.60
439;DHT22;206;48.782;9.252;2023-03-14T15:26:36;12.20;13.80
439;DHT22;206;48.782;9.252;2023-03-14T15:29:02;12.30;13.90
439;DHT22;206;48.782;9.252;2023-03-14T15:31:27;12.40;13.10
439;DHT22;206;48.782;9.252;2023-03-14T15:33:53;12.50;12.80
439;DHT22;206;48.782;9.252;2023-03-14T15:36:28;12.60;13.30
439;DHT22;206;48.782;9.252;2023-03-14T15:38:56;12.60;12.90
439;DHT22;206;48.782;9.252;2023-03-14T15:41:24;12.50;13.20
439;DHT22;206;48.782;9.252;2023-03-14T15:43:50;12.50;13.30
439;DHT22;206;48.782;9.252;2023-03-14T15:46:16;12.40;13.00
439;DHT22;206;48.782;9.252;2023-03-14T15:48:45;12.30;13.60
439;DHT22;206;48.782;9.252;2023-03-14T15:51:11;12.20;14.10
439;DHT22;206;48.782;9.252;2023-03-14T15:53:37;12.20;13.80
439;DHT22;206;48.782;9.252;2023-03-14T15:56:09;12.30;14.20
439;DHT22;206;48.782;9.252;2023-03-14T15:58:36;12.30;13.70
439;DHT22;206;48.782;9.252;2023-03-14T16:01:06;12.40;13.70
439;DHT22;206;48.782;9.252;2023-03-14T16:03:34;12.40;14.20
439;DHT22;206;48.782;9.252;2023-03-14T16:06:00;12.50;13.70
439;DHT22;206;48.782;9.252;2023-03-14T16:08:26;12.50;14.00
439;DHT22;206;48.782;9.252;2023-03-14T16:10:54;12.70;13.80
439;DHT22;206;48.782;9.252;2023-03-14T16:13:19;12.70;14.20
439;DHT22;206;48.782;9.252;2023-03-14T16:15:58;12.70;14.00
439;DHT22;206;48.782;9.252;2023-03-14T16:18:26;12.50;13.70
439;DHT22;206;48.782;9.252;2023-03-14T16:20:54;12.40;14.10
439;DHT22;206;48.782;9.252;2023-03-14T16:23:20;12.30;14.40
439;DHT22;206;48.782;9.252;2023-03-14T16:25:46;12.20;14.40
439;DHT22;206;48.782;9.252;2023-03-14T16:28:12;12.10;14.40
439;DHT22;206;48.782;9.252;2023-03-14T16:30:37;12.10;14.80
439;DHT22;206;48.782;9.252;2023-03-14T16:33:03;12.10;14.90
439;DHT22;206;48.782;9.252;2023-03-14T16:35:37;12.10;14.60
439;DHT22;206;48.782;9.252;2023-03-14T16:38:03;12.10;15.00
439;DHT22;206;48.782;9.252;2023-03-14T16:40:29;12.00;15.10
439;DHT22;206;48.782;9.252;2023-03-14T16:42:54;12.00;15.20
439;DHT22;206;48.782;9.252;2023-03-14T16:45:20;12.00;15.60
439;DHT22;206;48.782;9.252;2023-03-14T16:47:46;12.00;15.60
439;DHT22;206;48.782;9.252;2023-03-14T16:50:11;11.90;15.70
439;DHT22;206;48.782;9.252;2023-03-14T16:52:37;11.80;15.80
439;DHT22;206;48.782;9.252;2023-03-14T16:55:03;11.80;15.80
439;DHT22;206;48.782;9.252;2023-03-14T16:57:29;11.70;15.90
439;DHT22;206;48.782;9.252;2023-03-14T16:59:54;11.70;16.10
439;DHT22;206;48.782;9.252;2023-03-14T17:02:20;11.60;16.00
439;DHT22;206;48.782;9.252;2023-03-14T17:04:46;11.60;16.40
439;DHT22;206;48.782;9.252;2023-03-14T17:07:11;11.60;16.40
439;DHT22;206;48.782;9.252;2023-03-14T17:09:37;11.60;16.60
439;DHT22;206;48.782;9.252;2023-03-14T17:12:04;11.60;16.60
439;DHT22;206;48.782;9.252;2023-03-14T17:14:30;11.60;16.80
439;DHT22;206;48.782;9.252;2023-03-14T17:16:55;11.60;16.50
439;DHT22;206;48.782;9.252;2023-03-14T17:19:21;11.50;16.80
439;DHT22;206;48.782;9.252;2023-03-14T17:21:47;11.50;17.20
439;DHT22;206;48.782;9.252;2023-03-14T17:24:12;11.50;17.00
439;DHT22;206;48.782;9.252;2023-03-14T17:26:38;11.50;17.40
439;DHT22;206;48.782;9.252;2023-03-14T17:29:03;11.50;17.10
439;DHT22;206;48.782;9.252;2023-03-14T17:31:29;11.20;21.90
439;DHT22;206;48.782;9.252;2023-03-14T17:33:55;10.90;23.80
439;DHT22;206;48.782;9.252;2023-03-14T17:36:21;10.70;24.70
439;DHT22;206;48.782;9.252;2023-03-14T17:38:49;10.50;25.80
439;DHT22;206;48.782;9.252;2023-03-14T17:41:15;10.40;29.90
439;DHT22;206;48.782;9.252;2023-03-14T17:43:41;10.40;32.10
439;DHT22;206;48.782;9.252;2023-03-14T17:46:09;10.30;31.10
439;DHT22;206;48.782;9.252;2023-03-14T17:48:38;10.20;32.10
439;DHT22;206;48.782;9.252;2023-03-14T17:51:04;10.20;32.00
439;DHT22;206;48.782;9.252;2023-03-14T17:53:30;10.20;32.10